sensor_id;sensor_type;location;lat;lon;timestamp;pressure;altitude;pressure_sealevel;temperature;humidity
21433;BME280;18592;49.708;10.900;2023-03-31T00:00:44;98025.38;;;14.56;52.67
21433;BME280;18592;49.708;10.900;2023-03-31T00:02:49;98018.25;;;14.55;52.67
21433;BME280;18592;49.708;10.900;2023-03-31T00:04:57;98014.69;;;14.55;52.64
21433;BME280;18592;49.708;10.900;2023-03-31T00:07:00;98014.16;;;14.53;52.68
21433;BME280;18592;49.708;10.900;2023-03-31T00:09:02;98015.56;;;14.50;52.93
21433;BME280;18592;49.708;10.900;2023-03-31T00:11:05;98008.69;;;14.53;52.94
21433;BME280;18592;49.708;10.900;2023-03-31T00:13:08;97997.50;;;14.49;52.84
21433;BME280;18592;49.708;10.900;2023-03-31T00:15:09;97985.69;;;14.49;53.26
21433;BME280;18592;49.708;10.900;2023-03-31T00:17:11;97978.56;;;14.48;52.81
21433;BME280;18592;49.708;10.900;2023-03-31T00:19:15;97970.34;;;14.48;52.92
21433;BME280;18592;49.708;10.900;2023-03-31T00:21:22;97958.53;;;14.47;53.04
21433;BME280;18592;49.708;10.900;2023-03-31T00:23:30;97962.13;;;14.48;53.04
21433;BME280;18592;49.708;10.900;2023-03-31T00:25:32;97962.13;;;14.48;52.96
21433;BME280;18592;49.708;10.900;2023-03-31T00:27:33;97957.44;;;14.48;52.96
21433;BME280;18592;49.708;10.900;2023-03-31T00:29:35;97944.03;;;14.47;53.12
21433;BME280;18592;49.708;10.900;2023-03-31T00:31:37;97944.84;;;14.47;52.96
21433;BME280;18592;49.708;10.900;2023-03-31T00:33:39;97946.47;;;14.48;53.07
21433;BME280;18592;49.708;10.900;2023-03-31T00:35:42;97951.13;;;14.48;53.19
21433;BME280;18592;49.708;10.900;2023-03-31T00:37:46;97945.66;;;14.48;52.97
21433;BME280;18592;49.708;10.900;2023-03-31T00:39:47;97942.91;;;14.48;53.00
21433;BME280;18592;49.708;10.900;2023-03-31T00:41:49;97936.59;;;14.47;52.91
21433;BME280;18592;49.708;10.900;2023-03-31T00:46:17;97941.31;;;14.47;53.19
21433;BME280;18592;49.708;10.900;2023-03-31T00:48:22;97936.91;;;14.46;53.09
21433;BME280;18592;49.708;10.900;2023-03-31T00:50:28;97925.94;;;14.46;53.11
21433;BME280;18592;49.708;10.900;2023-03-31T00:52:33;97931.44;;;14.46;53.20
21433;BME280;18592;49.708;10.900;2023-03-31T00:54:39;97929.78;;;14.45;52.94
21433;BME280;18592;49.708;10.900;2023-03-31T00:56:46;97924.28;;;14.45;53.34
21433;BME280;18592;49.708;10.900;2023-03-31T00:58:49;97925.13;;;14.45;53.19
21433;BME280;18592;49.708;10.900;2023-03-31T01:00:51;97910.06;;;14.43;53.20
21433;BME280;18592;49.708;10.900;2023-03-31T01:02:59;97913.63;;;14.43;53.25
21433;BME280;18592;49.708;10.900;2023-03-31T01:05:02;97915.56;;;14.43;53.17
21433;BME280;18592;49.708;10.900;2023-03-31T01:07:15;97914.72;;;14.42;53.43
21433;BME280;18592;49.708;10.900;2023-03-31T01:09:23;97910.38;;;14.41;53.47
21433;BME280;18592;49.708;10.900;2023-03-31T01:11:26;97905.72;;;14.42;53.36
21433;BME280;18592;49.708;10.900;2023-03-31T01:13:29;97895.84;;;14.41;53.25
21433;BME280;18592;49.708;10.900;2023-03-31T01:15:33;97900.50;;;14.40;53.22
21433;BME280;18592;49.708;10.900;2023-03-31T01:17:35;97896.13;;;14.39;53.27
21433;BME280;18592;49.708;10.900;2023-03-31T01:20:01;97897.22;;;14.38;53.53
21433;BME280;18592;49.708;10.900;2023-03-31T01:22:34;97880.25;;;14.36;53.45
21433;BME280;18592;49.708;10.900;2023-03-31T01:25:13;97866.84;;;14.35;53.44
21433;BME280;18592;49.708;10.900;2023-03-31T01:27:49;97861.66;;;14.33;53.37
21433;BME280;18592;49.708;10.900;2023-03-31T01:30:35;97858.38;;;14.31;53.52
21433;BME280;18592;49.708;10.900;2023-03-31T01:35:26;97852.34;;;14.29;53.55
21433;BME280;18592;49.708;10.900;2023-03-31T01:42:41;97836.75;;;14.25;53.46
21433;BME280;18592;49.708;10.900;2023-03-31T01:47:27;97834.03;;;14.25;53.46
21433;BME280;18592;49.708;10.900;2023-03-31T01:50:01;97837.66;;;14.20;53.71
21433;BME280;18592;49.708;10.900;2023-03-31T01:52:19;97829.41;;;14.20;53.72
21433;BME280;18592;49.708;10.900;2023-03-31T01:56:57;97832.16;;;14.20;53.72
21433;BME280;18592;49.708;10.900;2023-03-31T01:59:04;97832.69;;;14.22;53.58
21433;BME280;18592;49.708;10.900;2023-03-31T02:01:17;97821.72;;;14.22;53.52
21433;BME280;18592;49.708;10.900;2023-03-31T02:03:25;97821.72;;;14.22;53.52
21433;BME280;18592;49.708;10.900;2023-03-31T02:05:34;97810.75;;;14.22;53.54
21433;BME280;18592;49.708;10.900;2023-03-31T02:08:05;97814.63;;;14.21;53.53
21433;BME280;18592;49.708;10.900;2023-03-31T02:10:11;97813.50;;;14.22;53.57
21433;BME280;18592;49.708;10.900;2023-03-31T02:12:14;97810.75;;;14.22;53.47
21433;BME280;18592;49.708;10.900;2023-03-31T02:14:20;97804.19;;;14.23;53.41
21433;BME280;18592;49.708;10.900;2023-03-31T02:16:25;97808.00;;;14.22;53.78
21433;BME280;18592;49.708;10.900;2023-03-31T02:18:30;97804.47;;;14.22;53.54
21433;BME280;18592;49.708;10.900;2023-03-31T02:20:33;97802.53;;;14.22;53.59
21433;BME280;18592;49.708;10.900;2023-03-31T02:22:37;97800.63;;;14.23;53.71
21433;BME280;18592;49.708;10.900;2023-03-31T02:24:41;97794.31;;;14.22;53.56
21433;BME280;18592;49.708;10.900;2023-03-31T02:27:03;97796.53;;;14.20;53.66
21433;BME280;18592;49.708;10.900;2023-03-31T02:29:10;97789.94;;;14.21;53.54
21433;BME280;18592;49.708;10.900;2023-03-31T02:31:28;97781.22;;;14.19;53.40
21433;BME280;18592;49.708;10.900;2023-03-31T02:33:40;97779.56;;;14.18;53.62
21433;BME280;18592;49.708;10.900;2023-03-31T02:35:42;97771.34;;;14.18;53.56
21433;BME280;18592;49.708;10.900;2023-03-31T02:37:44;97765.88;;;14.18;53.58
21433;BME280;18592;49.708;10.900;2023-03-31T02:39:49;97758.75;;;14.17;53.52
21433;BME280;18592;49.708;10.900;2023-03-31T02:41:53;97762.31;;;14.18;53.65
21433;BME280;18592;49.708;10.900;2023-03-31T02:43:55;97765.03;;;14.18;53.61
21433;BME280;18592;49.708;10.900;2023-03-31T02:46:00;97746.94;;;14.17;53.67
21433;BME280;18592;49.708;10.900;2023-03-31T02:48:06;97750.81;;;14.16;53.67
21433;BME280;18592;49.708;10.900;2023-03-31T02:50:12;97748.91;;;14.16;53.54
21433;BME280;18592;49.708;10.900;2023-03-31T02:54:52;97753.31;;;14.12;53.79
21433;BME280;18592;49.708;10.900;2023-03-31T02:59:50;97746.81;;;14.08;53.74
21433;BME280;18592;49.708;10.900;2023-03-31T03:06:38;97737.19;;;14.11;53.66
21433;BME280;18592;49.708;10.900;2023-03-31T03:11:20;97728.13;;;14.10;53.76
21433;BME280;18592;49.708;10.900;2023-03-31T03:13:45;97728.44;;;14.09;54.24
21433;BME280;18592;49.708;10.900;2023-03-31T03:16:02;97725.16;;;14.07;53.94
21433;BME280;18592;49.708;10.900;2023-03-31T03:18:06;97716.16;;;14.06;54.14
21433;BME280;18592;49.708;10.900;2023-03-31T03:20:10;97711.75;;;14.05;54.28
21433;BME280;18592;49.708;10.900;2023-03-31T03:22:12;97696.97;;;14.06;54.13
21433;BME280;18592;49.708;10.900;2023-03-31T03:24:14;97686.78;;;14.07;53.91
21433;BME280;18592;49.708;10.900;2023-03-31T03:26:18;97686.00;;;14.06;54.22
21433;BME280;18592;49.708;10.900;2023-03-31T03:28:21;97686.00;;;14.06;54.42
21433;BME280;18592;49.708;10.900;2023-03-31T03:30:23;97678.31;;;14.08;53.93
21433;BME280;18592;49.708;10.900;2023-03-31T03:32:25;97681.56;;;14.10;53.96
21433;BME280;18592;49.708;10.900;2023-03-31T03:34:27;97684.00;;;14.12;53.93
21433;BME280;18592;49.708;10.900;2023-03-31T03:36:28;97673.63;;;14.09;54.21
21433;BME280;18592;49.708;10.900;2023-03-31T03:38:30;97665.41;;;14.09;54.05
21433;BME280;18592;49.708;10.900;2023-03-31T03:40:32;97667.03;;;14.10;54.26
21433;BME280;18592;49.708;10.900;2023-03-31T03:42:34;97667.34;;;14.08;54.20
21433;BME280;18592;49.708;10.900;2023-03-31T03:44:35;97665.41;;;14.09;54.23
21433;BME280;18592;49.708;10.900;2023-03-31T03:46:37;97657.19;;;14.09;54.26
21433;BME280;18592;49.708;10.900;2023-03-31T03:48:38;97652.00;;;14.07;54.05
21433;BME280;18592;49.708;10.900;2023-03-31T03:50:40;97642.94;;;14.07;54.06
21433;BME280;18592;49.708;10.900;2023-03-31T03:52:42;97651.72;;;14.09;54.12
21433;BME280;18592;49.708;10.900;2023-03-31T03:54:44;97645.41;;;14.08;53.92
21433;BME280;18592;49.708;10.900;2023-03-31T03:56:46;97646.25;;;14.09;53.90
21433;BME280;18592;49.708;10.900;2023-03-31T03:58:47;97645.09;;;14.10;53.91
21433;BME280;18592;49.708;10.900;2023-03-31T04:00:49;97640.44;;;14.10;53.98
21433;BME280;18592;49.708;10.900;2023-03-31T04:02:51;97636.06;;;14.09;54.21
21433;BME280;18592;49.708;10.900;2023-03-31T04:04:52;97638.81;;;14.09;53.97
21433;BME280;18592;49.708;10.900;2023-03-31T04:06:54;97630.81;;;14.13;53.91
21433;BME280;18592;49.708;10.900;2023-03-31T04:08:56;97638.72;;;14.14;53.79
21433;BME280;18592;49.708;10.900;2023-03-31T04:10:58;97631.06;;;14.16;53.91
21433;BME280;18592;49.708;10.900;2023-03-31T04:13:00;97633.78;;;14.16;53.85
21433;BME280;18592;49.708;10.900;2023-03-31T04:15:02;97627.78;;;14.14;53.91
21433;BME280;18592;49.708;10.900;2023-03-31T04:17:04;97624.50;;;14.12;54.00
21433;BME280;18592;49.708;10.900;2023-03-31T04:19:05;97620.69;;;14.13;53.94
21433;BME280;18592;49.708;10.900;2023-03-31T04:21:08;97621.19;;;14.15;53.82
21433;BME280;18592;49.708;10.900;2023-03-31T04:23:14;97611.03;;;14.16;53.75
21433;BME280;18592;49.708;10.900;2023-03-31T04:25:16;97609.13;;;14.16;53.70
21433;BME280;18592;49.708;10.900;2023-03-31T04:27:17;97606.38;;;14.16;53.96
21433;BME280;18592;49.708;10.900;2023-03-31T04:29:21;97602.59;;;14.12;54.04
21433;BME280;18592;49.708;10.900;2023-03-31T04:31:27;97610.53;;;14.14;53.91
21433;BME280;18592;49.708;10.900;2023-03-31T04:33:31;97593.28;;;14.13;54.03
21433;BME280;18592;49.708;10.900;2023-03-31T04:35:37;97589.72;;;14.13;53.97
21433;BME280;18592;49.708;10.900;2023-03-31T04:37:59;97580.97;;;14.11;53.85
21433;BME280;18592;49.708;10.900;2023-03-31T04:40:01;97583.72;;;14.11;54.11
21433;BME280;18592;49.708;10.900;2023-03-31T04:42:09;97574.16;;;14.08;54.54
21433;BME280;18592;49.708;10.900;2023-03-31T04:44:10;97576.41;;;14.06;54.45
21433;BME280;18592;49.708;10.900;2023-03-31T04:46:12;97568.19;;;14.06;54.47
21433;BME280;18592;49.708;10.900;2023-03-31T04:48:14;97557.22;;;14.06;54.30
21433;BME280;18592;49.708;10.900;2023-03-31T04:50:15;97547.66;;;14.04;54.54
21433;BME280;18592;49.708;10.900;2023-03-31T04:52:17;97554.25;;;14.02;54.33
21433;BME280;18592;49.708;10.900;2023-03-31T04:54:19;97557.28;;;14.01;54.55
21433;BME280;18592;49.708;10.900;2023-03-31T04:56:20;97556.16;;;14.02;54.61
21433;BME280;18592;49.708;10.900;2023-03-31T04:58:23;97551.81;;;14.01;54.55
21433;BME280;18592;49.708;10.900;2023-03-31T05:00:25;97546.63;;;13.99;54.39
21433;BME280;18592;49.708;10.900;2023-03-31T05:02:26;97537.56;;;13.99;54.29
21433;BME280;18592;49.708;10.900;2023-03-31T05:04:28;97547.75;;;13.98;54.52
21433;BME280;18592;49.708;10.900;2023-03-31T05:06:30;97546.41;;;13.96;54.42
21433;BME280;18592;49.708;10.900;2023-03-31T05:08:32;97546.41;;;13.96;54.51
21433;BME280;18592;49.708;10.900;2023-03-31T05:10:34;97533.81;;;13.95;54.43
21433;BME280;18592;49.708;10.900;2023-03-31T05:12:36;97536.25;;;13.96;54.52
21433;BME280;18592;49.708;10.900;2023-03-31T05:14:38;97532.72;;;13.96;54.62
21433;BME280;18592;49.708;10.900;2023-03-31T05:16:40;97528.84;;;13.97;54.34
21433;BME280;18592;49.708;10.900;2023-03-31T05:18:42;97522.25;;;13.98;54.13
21433;BME280;18592;49.708;10.900;2023-03-31T05:20:44;97514.03;;;13.98;53.95
21433;BME280;18592;49.708;10.900;2023-03-31T05:22:48;97510.19;;;13.99;54.07
21433;BME280;18592;49.708;10.900;2023-03-31T05:24:51;97502.25;;;13.97;54.30
21433;BME280;18592;49.708;10.900;2023-03-31T05:26:53;97500.63;;;13.96;54.11
21433;BME280;18592;49.708;10.900;2023-03-31T05:28:54;97493.22;;;13.97;54.38
21433;BME280;18592;49.708;10.900;2023-03-31T05:30:58;97479.84;;;13.95;54.18
21433;BME280;18592;49.708;10.900;2023-03-31T05:33:01;97474.06;;;13.97;54.28
21433;BME280;18592;49.708;10.900;2023-03-31T05:35:03;97468.38;;;13.93;54.33
21433;BME280;18592;49.708;10.900;2023-03-31T05:37:05;97459.03;;;13.94;54.38
21433;BME280;18592;49.708;10.900;2023-03-31T05:39:07;97461.75;;;13.94;54.26
21433;BME280;18592;49.708;10.900;2023-03-31T05:41:09;97464.22;;;13.96;54.38
21433;BME280;18592;49.708;10.900;2023-03-31T05:43:15;97465.00;;;13.96;54.49
21433;BME280;18592;49.708;10.900;2023-03-31T05:45:19;97457.91;;;13.95;54.47
21433;BME280;18592;49.708;10.900;2023-03-31T05:47:20;97448.88;;;13.95;54.40
21433;BME280;18592;49.708;10.900;2023-03-31T05:49:23;97456.78;;;13.96;54.44
21433;BME280;18592;49.708;10.900;2023-03-31T05:51:29;97456.28;;;13.94;54.42
21433;BME280;18592;49.708;10.900;2023-03-31T05:53:31;97459.03;;;13.94;54.64
21433;BME280;18592;49.708;10.900;2023-03-31T05:55:37;97451.63;;;13.95;54.71
21433;BME280;18592;49.708;10.900;2023-03-31T05:57:38;97448.38;;;13.93;54.59
21433;BME280;18592;49.708;10.900;2023-03-31T05:59:40;97444.22;;;13.95;54.40
21433;BME280;18592;49.708;10.900;2023-03-31T06:01:43;97445.84;;;13.96;54.44
21433;BME280;18592;49.708;10.900;2023-03-31T06:03:44;97440.66;;;13.95;54.38
21433;BME280;18592;49.708;10.900;2023-03-31T06:05:47;97442.59;;;13.94;54.71
21433;BME280;18592;49.708;10.900;2023-03-31T06:07:49;97437.41;;;13.93;54.79
21433;BME280;18592;49.708;10.900;2023-03-31T06:09:51;97431.94;;;13.93;54.74
21433;BME280;18592;49.708;10.900;2023-03-31T06:11:52;97429.72;;;13.95;54.41
21433;BME280;18592;49.708;10.900;2023-03-31T06:14:00;97430.81;;;13.94;54.55
21433;BME280;18592;49.708;10.900;2023-03-31T06:16:04;97427.78;;;13.95;54.43
21433;BME280;18592;49.708;10.900;2023-03-31T06:18:06;97424.72;;;13.97;54.38
21433;BME280;18592;49.708;10.900;2023-03-31T06:20:11;97412.97;;;13.96;54.34
21433;BME280;18592;49.708;10.900;2023-03-31T06:22:28;97426.66;;;13.96;54.33
21433;BME280;18592;49.708;10.900;2023-03-31T06:24:39;97423.91;;;13.96;54.47
21433;BME280;18592;49.708;10.900;2023-03-31T06:26:40;97428.59;;;13.96;54.59
21433;BME280;18592;49.708;10.900;2023-03-31T06:28:43;97433.25;;;13.95;54.89
21433;BME280;18592;49.708;10.900;2023-03-31T06:30:46;97440.16;;;13.93;54.81
21433;BME280;18592;49.708;10.900;2023-03-31T06:32:47;97442.91;;;13.93;54.87
21433;BME280;18592;49.708;10.900;2023-03-31T06:34:49;97440.66;;;13.95;54.42
21433;BME280;18592;49.708;10.900;2023-03-31T06:36:51;97444.22;;;13.95;54.66
21433;BME280;18592;49.708;10.900;2023-03-31T06:38:53;97439.56;;;13.96;54.89
21433;BME280;18592;49.708;10.900;2023-03-31T06:40:55;97439.56;;;13.96;54.90
21433;BME280;18592;49.708;10.900;2023-03-31T06:42:56;97435.50;;;13.93;54.68
21433;BME280;18592;49.708;10.900;2023-03-31T06:44:58;97434.38;;;13.94;54.72
21433;BME280;18592;49.708;10.900;2023-03-31T06:46:59;97431.63;;;13.94;54.67
21433;BME280;18592;49.708;10.900;2023-03-31T06:49:01;97436.28;;;13.94;54.93
21433;BME280;18592;49.708;10.900;2023-03-31T06:51:05;97428.38;;;13.92;54.68
21433;BME280;18592;49.708;10.900;2023-03-31T06:53:08;97432.22;;;13.91;54.94
21433;BME280;18592;49.708;10.900;2023-03-31T06:55:09;97438.84;;;13.90;54.98
21433;BME280;18592;49.708;10.900;2023-03-31T06:57:13;97437.19;;;13.89;54.99
21433;BME280;18592;49.708;10.900;2023-03-31T06:59:15;97447.88;;;13.91;54.69
21433;BME280;18592;49.708;10.900;2023-03-31T07:01:20;97441.25;;;13.92;54.94
21433;BME280;18592;49.708;10.900;2023-03-31T07:03:22;97444.00;;;13.92;54.93
21433;BME280;18592;49.708;10.900;2023-03-31T07:05:26;97430.63;;;13.90;55.27
21433;BME280;18592;49.708;10.900;2023-03-31T07:07:32;97433.63;;;13.89;55.34
21433;BME280;18592;49.708;10.900;2023-03-31T07:09:34;97421.06;;;13.88;55.18
21433;BME280;18592;49.708;10.900;2023-03-31T07:11:38;97428.47;;;13.87;55.16
21433;BME280;18592;49.708;10.900;2023-03-31T07:13:42;97431.22;;;13.87;55.09
21433;BME280;18592;49.708;10.900;2023-03-31T07:15:47;97419.16;;;13.88;55.14
21433;BME280;18592;49.708;10.900;2023-03-31T07:17:50;97411.22;;;13.87;55.18
21433;BME280;18592;49.708;10.900;2023-03-31T07:19:54;97416.41;;;13.88;55.16
21433;BME280;18592;49.708;10.900;2023-03-31T07:21:56;97412.03;;;13.87;54.94
21433;BME280;18592;49.708;10.900;2023-03-31T07:23:57;97403.81;;;13.87;55.19
21433;BME280;18592;49.708;10.900;2023-03-31T07:25:59;97395.09;;;13.85;55.48
21433;BME280;18592;49.708;10.900;2023-03-31T07:28:03;97392.63;;;13.84;55.50
21433;BME280;18592;49.708;10.900;2023-03-31T07:30:08;97389.63;;;13.85;55.69
21433;BME280;18592;49.708;10.900;2023-03-31T07:32:11;97381.69;;;13.84;55.22
21433;BME280;18592;49.708;10.900;2023-03-31T07:34:12;97383.31;;;13.85;55.33
21433;BME280;18592;49.708;10.900;2023-03-31T07:36:14;97371.53;;;13.84;55.89
21433;BME280;18592;49.708;10.900;2023-03-31T07:38:16;97368.28;;;13.82;55.75
21433;BME280;18592;49.708;10.900;2023-03-31T07:40:21;97369.41;;;13.81;55.83
21433;BME280;18592;49.708;10.900;2023-03-31T07:42:23;97372.94;;;13.82;55.94
21433;BME280;18592;49.708;10.900;2023-03-31T07:44:25;97358.97;;;13.83;55.69
21433;BME280;18592;49.708;10.900;2023-03-31T07:46:27;97344.16;;;13.84;55.58
21433;BME280;18592;49.708;10.900;2023-03-31T07:48:29;97340.00;;;13.87;55.83
21433;BME280;18592;49.708;10.900;2023-03-31T07:50:31;97342.22;;;13.85;55.88
21433;BME280;18592;49.708;10.900;2023-03-31T07:52:35;97340.00;;;13.87;56.00
21433;BME280;18592;49.708;10.900;2023-03-31T07:54:37;97334.84;;;13.85;56.00
21433;BME280;18592;49.708;10.900;2023-03-31T07:56:38;97338.88;;;13.88;55.75
21433;BME280;18592;49.708;10.900;2023-03-31T07:58:40;97335.84;;;13.89;56.70
21433;BME280;18592;49.708;10.900;2023-03-31T08:00:42;97337.47;;;13.90;56.26
21433;BME280;18592;49.708;10.900;2023-03-31T08:02:43;97329.75;;;13.92;56.20
21433;BME280;18592;49.708;10.900;2023-03-31T08:04:46;97329.44;;;13.94;55.97
21433;BME280;18592;49.708;10.900;2023-03-31T08:06:47;97319.31;;;13.94;56.42
21433;BME280;18592;49.708;10.900;2023-03-31T08:08:49;97315.47;;;13.95;56.20
21433;BME280;18592;49.708;10.900;2023-03-31T08:10:52;97317.06;;;13.96;56.00
21433;BME280;18592;49.708;10.900;2023-03-31T08:12:53;97314.88;;;13.98;56.31
21433;BME280;18592;49.708;10.900;2023-03-31T08:14:56;97305.00;;;13.97;55.97
21433;BME280;18592;49.708;10.900;2023-03-31T08:16:57;97295.38;;;14.00;56.30
21433;BME280;18592;49.708;10.900;2023-03-31T08:19:00;97299.75;;;14.01;55.55
21433;BME280;18592;49.708;10.900;2023-03-31T08:21:02;97293.75;;;13.99;55.99
21433;BME280;18592;49.708;10.900;2023-03-31T08:23:05;97288.25;;;13.99;56.29
21433;BME280;18592;49.708;10.900;2023-03-31T08:25:09;97290.22;;;13.98;56.17
21433;BME280;18592;49.708;10.900;2023-03-31T08:27:11;97293.44;;;14.00;55.85
21433;BME280;18592;49.708;10.900;2023-03-31T08:29:13;97293.75;;;13.99;55.88
21433;BME280;18592;49.708;10.900;2023-03-31T08:31:17;97289.91;;;14.00;56.03
21433;BME280;18592;49.708;10.900;2023-03-31T08:33:20;97293.75;;;13.99;56.52
21433;BME280;18592;49.708;10.900;2023-03-31T08:35:22;97281.69;;;14.00;56.29
21433;BME280;18592;49.708;10.900;2023-03-31T08:37:23;97267.38;;;14.03;56.15
21433;BME280;18592;49.708;10.900;2023-03-31T08:39:25;97237.25;;;14.03;56.42
21433;BME280;18592;49.708;10.900;2023-03-31T08:43:55;97158.88;;;14.02;56.42
21433;BME280;18592;49.708;10.900;2023-03-31T08:45:57;97164.38;;;14.02;56.39
21433;BME280;18592;49.708;10.900;2023-03-31T08:48:18;97190.16;;;14.01;56.05
21433;BME280;18592;49.708;10.900;2023-03-31T08:50:26;97227.38;;;14.02;56.42
21433;BME280;18592;49.708;10.900;2023-03-31T08:52:33;97220.31;;;14.01;56.52
21433;BME280;18592;49.708;10.900;2023-03-31T08:54:45;97215.91;;;14.00;56.65
21433;BME280;18592;49.708;10.900;2023-03-31T08:56:50;97218.34;;;14.01;56.52
21433;BME280;18592;49.708;10.900;2023-03-31T08:58:52;97204.84;;;14.05;56.82
21433;BME280;18592;49.708;10.900;2023-03-31T09:01:08;97198.78;;;14.08;57.05
21433;BME280;18592;49.708;10.900;2023-03-31T09:03:26;97189.94;;;14.11;56.65
21433;BME280;18592;49.708;10.900;2023-03-31T09:08:12;97187.59;;;14.18;57.28
21433;BME280;18592;49.708;10.900;2023-03-31T09:12:38;97185.44;;;14.29;57.45
21433;BME280;18592;49.708;10.900;2023-03-31T09:15:00;97182.13;;;14.32;58.76
21433;BME280;18592;49.708;10.900;2023-03-31T09:19:58;97180.47;;;14.44;58.64
21433;BME280;18592;49.708;10.900;2023-03-31T09:22:12;97179.19;;;14.50;58.46
21433;BME280;18592;49.708;10.900;2023-03-31T09:26:31;97174.78;;;14.63;58.08
21433;BME280;18592;49.708;10.900;2023-03-31T09:28:38;97172.41;;;14.70;58.60
21433;BME280;18592;49.708;10.900;2023-03-31T09:30:40;97169.25;;;14.77;58.66
21433;BME280;18592;49.708;10.900;2023-03-31T09:32:42;97160.28;;;14.85;58.62
21433;BME280;18592;49.708;10.900;2023-03-31T09:34:50;97159.34;;;14.89;58.40
21433;BME280;18592;49.708;10.900;2023-03-31T09:36:52;97160.03;;;14.95;58.26
21433;BME280;18592;49.708;10.900;2023-03-31T09:38:54;97169.25;;;14.99;58.32
21433;BME280;18592;49.708;10.900;2023-03-31T09:40:59;97169.72;;;15.01;58.65
21433;BME280;18592;49.708;10.900;2023-03-31T09:43:07;97161.38;;;15.06;58.65
21433;BME280;18592;49.708;10.900;2023-03-31T09:45:16;97156.38;;;15.08;58.98
21433;BME280;18592;49.708;10.900;2023-03-31T09:47:45;97160.13;;;15.12;59.63
21433;BME280;18592;49.708;10.900;2023-03-31T09:49:45;97156.91;;;15.18;58.72
21433;BME280;18592;49.708;10.900;2023-03-31T09:52:05;97155.47;;;15.21;58.89
21433;BME280;18592;49.708;10.900;2023-03-31T09:54:36;97160.66;;;15.22;58.92
21433;BME280;18592;49.708;10.900;2023-03-31T09:58:44;97152.47;;;15.31;59.03
21433;BME280;18592;49.708;10.900;2023-03-31T10:01:14;97154.59;;;15.34;58.82
21433;BME280;18592;49.708;10.900;2023-03-31T10:03:18;97148.94;;;15.39;58.51
21433;BME280;18592;49.708;10.900;2023-03-31T10:05:35;97157.19;;;15.39;58.71
21433;BME280;18592;49.708;10.900;2023-03-31T10:07:38;97165.28;;;15.44;58.41
21433;BME280;18592;49.708;10.900;2023-03-31T10:09:40;97165.19;;;15.49;58.30
21433;BME280;18592;49.708;10.900;2023-03-31T10:12:03;97156.00;;;15.54;58.87
21433;BME280;18592;49.708;10.900;2023-03-31T10:14:13;97147.78;;;15.62;59.18
21433;BME280;18592;49.708;10.900;2023-03-31T10:18:48;97152.75;;;15.91;58.81
21433;BME280;18592;49.708;10.900;2023-03-31T10:20:57;97148.25;;;16.04;58.91
21433;BME280;18592;49.708;10.900;2023-03-31T10:23:34;97152.94;;;16.20;59.07
21433;BME280;18592;49.708;10.900;2023-03-31T10:25:39;97152.81;;;16.34;58.53
21433;BME280;18592;49.708;10.900;2023-03-31T10:27:42;97143.25;;;16.48;58.74
21433;BME280;18592;49.708;10.900;2023-03-31T10:29:45;97147.66;;;16.58;58.27
21433;BME280;18592;49.708;10.900;2023-03-31T10:31:47;97130.81;;;16.68;57.97
21433;BME280;18592;49.708;10.900;2023-03-31T10:33:50;97145.41;;;16.77;57.77
21433;BME280;18592;49.708;10.900;2023-03-31T10:35:58;97143.78;;;16.85;57.89
21433;BME280;18592;49.708;10.900;2023-03-31T10:38:16;97164.81;;;16.89;57.80
21433;BME280;18592;49.708;10.900;2023-03-31T10:40:31;97171.75;;;16.95;57.43
21433;BME280;18592;49.708;10.900;2023-03-31T10:42:57;97187.63;;;16.98;56.83
21433;BME280;18592;49.708;10.900;2023-03-31T10:48:16;97176.13;;;16.96;56.54
21433;BME280;18592;49.708;10.900;2023-03-31T10:50:36;97157.03;;;16.91;56.24
21433;BME280;18592;49.708;10.900;2023-03-31T10:52:44;97153.94;;;16.93;56.50
21433;BME280;18592;49.708;10.900;2023-03-31T10:54:54;97153.47;;;16.91;57.08
21433;BME280;18592;49.708;10.900;2023-03-31T10:57:01;97151.53;;;16.91;57.08
21433;BME280;18592;49.708;10.900;2023-03-31T11:04:35;97127.41;;;16.97;57.21
21433;BME280;18592;49.708;10.900;2023-03-31T11:09:35;97132.06;;;17.05;57.16
21433;BME280;18592;49.708;10.900;2023-03-31T11:11:57;97129.47;;;17.08;57.30
21433;BME280;18592;49.708;10.900;2023-03-31T11:14:06;97153.25;;;17.13;56.92
21433;BME280;18592;49.708;10.900;2023-03-31T11:16:32;97138.53;;;17.18;57.08
21433;BME280;18592;49.708;10.900;2023-03-31T11:18:52;97147.72;;;17.22;56.52
21433;BME280;18592;49.708;10.900;2023-03-31T11:21:36;97158.91;;;17.25;56.62
21433;BME280;18592;49.708;10.900;2023-03-31T11:28:44;97155.81;;;17.18;55.90
21433;BME280;18592;49.708;10.900;2023-03-31T11:42:56;97169.00;;;16.95;56.85
21433;BME280;18592;49.708;10.900;2023-03-31T11:45:04;97165.63;;;16.90;56.88
21433;BME280;18592;49.708;10.900;2023-03-31T11:47:17;97179.56;;;16.85;56.96
21433;BME280;18592;49.708;10.900;2023-03-31T11:51:46;97148.78;;;16.74;56.92
21433;BME280;18592;49.708;10.900;2023-03-31T11:53:50;97144.75;;;16.72;57.02
21433;BME280;18592;49.708;10.900;2023-03-31T11:55:54;97141.50;;;16.70;56.65
21433;BME280;18592;49.708;10.900;2023-03-31T11:58:07;97129.88;;;16.64;56.51
21433;BME280;18592;49.708;10.900;2023-03-31T12:00:22;97130.81;;;16.60;56.71
21433;BME280;18592;49.708;10.900;2023-03-31T12:03:01;97123.53;;;16.55;56.85
21433;BME280;18592;49.708;10.900;2023-03-31T12:05:10;97120.94;;;16.50;56.79
21433;BME280;18592;49.708;10.900;2023-03-31T12:07:28;97117.03;;;16.42;57.25
21433;BME280;18592;49.708;10.900;2023-03-31T12:09:46;97113.81;;;16.40;56.98
21433;BME280;18592;49.708;10.900;2023-03-31T12:12:18;97080.50;;;16.33;57.09
21433;BME280;18592;49.708;10.900;2023-03-31T12:16:39;97093.59;;;16.28;56.76
21433;BME280;18592;49.708;10.900;2023-03-31T12:18:58;97096.97;;;16.25;56.53